sensor_id;sensor_type;location;lat;lon;timestamp;P1;durP1;ratioP1;P2;durP2;ratioP2
11283;SDS011;5698;47.332;11.180;2024-02-04T00:01:33;1.17;;;0.80;;
11283;SDS011;5698;47.332;11.180;2024-02-04T00:04:00;1.00;;;0.43;;
11283;SDS011;5698;47.332;11.180;2024-02-04T00:06:27;0.77;;;0.60;;
11283;SDS011;5698;47.332;11.180;2024-02-04T00:08:54;2.57;;;0.70;;
11283;SDS011;5698;47.332;11.180;2024-02-04T00:11:21;0.67;;;0.63;;
11283;SDS011;5698;47.332;11.180;2024-02-04T00:13:48;3.03;;;0.73;;
11283;SDS011;5698;47.332;11.180;2024-02-04T00:16:17;0.77;;;0.60;;
11283;SDS011;5698;47.332;11.180;2024-02-04T00:18:44;0.73;;;0.70;;
11283;SDS011;5698;47.332;11.180;2024-02-04T00:21:11;0.60;;;0.60;;
11283;SDS011;5698;47.332;11.180;2024-02-04T00:23:38;3.80;;;0.93;;
11283;SDS011;5698;47.332;11.180;2024-02-04T00:26:05;2.80;;;0.80;;
11283;SDS011;5698;47.332;11.180;2024-02-04T00:28:33;0.63;;;0.53;;
11283;SDS011;5698;47.332;11.180;2024-02-04T00:31:00;1.30;;;0.47;;
11283;SDS011;5698;47.332;11.180;2024-02-04T00:33:27;0.73;;;0.60;;
11283;SDS011;5698;47.332;11.180;2024-02-04T00:35:54;1.37;;;0.70;;
11283;SDS011;5698;47.332;11.180;2024-02-04T00:38:21;0.90;;;0.60;;
11283;SDS011;5698;47.332;11.180;2024-02-04T00:40:48;1.20;;;0.67;;
11283;SDS011;5698;47.332;11.180;2024-02-04T00:43:17;1.13;;;0.80;;
11283;SDS011;5698;47.332;11.180;2024-02-04T00:45:44;1.97;;;0.80;;
11283;SDS011;5698;47.332;11.180;2024-02-04T00:48:11;1.37;;;0.70;;
11283;SDS011;5698;47.332;11.180;2024-02-04T00:50:39;3.07;;;0.70;;
11283;SDS011;5698;47.332;11.180;2024-02-04T00:53:07;1.40;;;0.50;;
11283;SDS011;5698;47.332;11.180;2024-02-04T00:55:34;1.40;;;0.60;;
11283;SDS011;5698;47.332;11.180;2024-02-04T00:58:01;1.50;;;0.60;;
11283;SDS011;5698;47.332;11.180;2024-02-04T01:00:28;1.23;;;0.70;;
11283;SDS011;5698;47.332;11.180;2024-02-04T01:02:55;0.77;;;0.70;;
11283;SDS011;5698;47.332;11.180;2024-02-04T01:05:22;2.07;;;0.80;;
11283;SDS011;5698;47.332;11.180;2024-02-04T01:07:50;2.10;;;0.80;;
11283;SDS011;5698;47.332;11.180;2024-02-04T01:10:17;1.53;;;0.60;;
11283;SDS011;5698;47.332;11.180;2024-02-04T01:12:44;2.47;;;0.80;;
11283;SDS011;5698;47.332;11.180;2024-02-04T01:15:11;1.93;;;0.90;;
11283;SDS011;5698;47.332;11.180;2024-02-04T01:17:38;1.80;;;0.90;;
11283;SDS011;5698;47.332;11.180;2024-02-04T01:20:06;0.97;;;0.77;;
11283;SDS011;5698;47.332;11.180;2024-02-04T01:22:33;1.43;;;0.80;;
11283;SDS011;5698;47.332;11.180;2024-02-04T01:25:02;2.17;;;1.53;;
11283;SDS011;5698;47.332;11.180;2024-02-04T01:27:29;1.00;;;0.80;;
11283;SDS011;5698;47.332;11.180;2024-02-04T01:29:56;1.43;;;0.60;;
11283;SDS011;5698;47.332;11.180;2024-02-04T01:32:23;4.13;;;1.10;;
11283;SDS011;5698;47.332;11.180;2024-02-04T01:34:50;3.27;;;0.70;;
11283;SDS011;5698;47.332;11.180;2024-02-04T01:37:17;1.27;;;0.60;;
11283;SDS011;5698;47.332;11.180;2024-02-04T01:39:44;1.47;;;0.70;;
11283;SDS011;5698;47.332;11.180;2024-02-04T01:42:13;0.97;;;0.80;;
11283;SDS011;5698;47.332;11.180;2024-02-04T01:44:40;1.30;;;0.63;;
11283;SDS011;5698;47.332;11.180;2024-02-04T01:47:07;1.67;;;0.73;;
11283;SDS011;5698;47.332;11.180;2024-02-04T01:49:34;1.43;;;0.60;;
11283;SDS011;5698;47.332;11.180;2024-02-04T01:52:02;1.00;;;0.70;;
11283;SDS011;5698;47.332;11.180;2024-02-04T01:54:30;1.00;;;0.50;;
11283;SDS011;5698;47.332;11.180;2024-02-04T01:56:58;2.37;;;1.00;;
11283;SDS011;5698;47.332;11.180;2024-02-04T01:59:28;1.33;;;0.60;;
11283;SDS011;5698;47.332;11.180;2024-02-04T02:01:56;1.47;;;0.60;;
11283;SDS011;5698;47.332;11.180;2024-02-04T02:04:24;1.73;;;0.60;;
11283;SDS011;5698;47.332;11.180;2024-02-04T02:06:51;0.73;;;0.57;;
11283;SDS011;5698;47.332;11.180;2024-02-04T02:09:19;1.90;;;0.90;;
11283;SDS011;5698;47.332;11.180;2024-02-04T02:11:47;0.97;;;0.70;;
11283;SDS011;5698;47.332;11.180;2024-02-04T02:14:23;0.77;;;0.60;;
11283;SDS011;5698;47.332;11.180;2024-02-04T02:16:54;1.87;;;0.80;;
11283;SDS011;5698;47.332;11.180;2024-02-04T02:19:31;0.73;;;0.50;;
11283;SDS011;5698;47.332;11.180;2024-02-04T02:22:11;1.27;;;0.50;;
11283;SDS011;5698;47.332;11.180;2024-02-04T02:24:49;1.13;;;0.60;;
11283;SDS011;5698;47.332;11.180;2024-02-04T02:27:17;1.43;;;0.60;;
11283;SDS011;5698;47.332;11.180;2024-02-04T02:29:44;0.50;;;0.50;;
11283;SDS011;5698;47.332;11.180;2024-02-04T02:32:11;0.63;;;0.60;;
11283;SDS011;5698;47.332;11.180;2024-02-04T02:34:38;0.90;;;0.57;;
11283;SDS011;5698;47.332;11.180;2024-02-04T02:37:08;0.60;;;0.60;;
11283;SDS011;5698;47.332;11.180;2024-02-04T02:39:45;0.50;;;0.40;;
11283;SDS011;5698;47.332;11.180;2024-02-04T02:42:23;0.63;;;0.50;;
11283;SDS011;5698;47.332;11.180;2024-02-04T02:44:51;0.40;;;0.40;;
11283;SDS011;5698;47.332;11.180;2024-02-04T02:47:20;2.23;;;0.80;;
11283;SDS011;5698;47.332;11.180;2024-02-04T02:49:50;1.77;;;0.70;;
11283;SDS011;5698;47.332;11.180;2024-02-04T02:52:19;1.20;;;0.60;;
11283;SDS011;5698;47.332;11.180;2024-02-04T02:54:46;0.67;;;0.60;;
11283;SDS011;5698;47.332;11.180;2024-02-04T02:57:15;1.23;;;0.60;;
11283;SDS011;5698;47.332;11.180;2024-02-04T02:59:42;1.03;;;0.67;;
11283;SDS011;5698;47.332;11.180;2024-02-04T03:02:11;0.43;;;0.43;;
11283;SDS011;5698;47.332;11.180;2024-02-04T03:04:39;1.20;;;0.57;;
11283;SDS011;5698;47.332;11.180;2024-02-04T03:07:06;1.03;;;0.60;;
11283;SDS011;5698;47.332;11.180;2024-02-04T03:09:33;0.93;;;0.53;;
11283;SDS011;5698;47.332;11.180;2024-02-04T03:12:00;0.67;;;0.60;;
11283;SDS011;5698;47.332;11.180;2024-02-04T03:14:28;0.83;;;0.60;;
11283;SDS011;5698;47.332;11.180;2024-02-04T03:16:55;1.90;;;0.70;;
11283;SDS011;5698;47.332;11.180;2024-02-04T03:19:22;0.77;;;0.50;;
11283;SDS011;5698;47.332;11.180;2024-02-04T03:21:49;2.23;;;0.73;;
11283;SDS011;5698;47.332;11.180;2024-02-04T03:24:16;0.90;;;0.60;;
11283;SDS011;5698;47.332;11.180;2024-02-04T03:26:43;0.97;;;0.50;;
11283;SDS011;5698;47.332;11.180;2024-02-04T03:29:10;1.53;;;0.83;;
11283;SDS011;5698;47.332;11.180;2024-02-04T03:31:39;1.83;;;0.60;;
11283;SDS011;5698;47.332;11.180;2024-02-04T03:34:06;1.50;;;0.50;;
11283;SDS011;5698;47.332;11.180;2024-02-04T03:36:33;1.80;;;0.40;;
11283;SDS011;5698;47.332;11.180;2024-02-04T03:39:00;2.37;;;0.60;;
11283;SDS011;5698;47.332;11.180;2024-02-04T03:41:27;0.67;;;0.50;;
11283;SDS011;5698;47.332;11.180;2024-02-04T03:43:54;0.50;;;0.50;;
11283;SDS011;5698;47.332;11.180;2024-02-04T03:46:21;4.17;;;0.70;;
11283;SDS011;5698;47.332;11.180;2024-02-04T03:48:50;1.80;;;0.60;;
11283;SDS011;5698;47.332;11.180;2024-02-04T03:51:17;2.47;;;0.50;;
11283;SDS011;5698;47.332;11.180;2024-02-04T03:53:45;2.33;;;1.03;;
11283;SDS011;5698;47.332;11.180;2024-02-04T03:56:12;0.60;;;0.40;;
11283;SDS011;5698;47.332;11.180;2024-02-04T03:58:39;1.07;;;0.70;;
11283;SDS011;5698;47.332;11.180;2024-02-04T04:01:09;1.37;;;0.60;;
11283;SDS011;5698;47.332;11.180;2024-02-04T04:03:38;0.73;;;0.50;;
11283;SDS011;5698;47.332;11.180;2024-02-04T04:06:07;3.30;;;0.70;;
11283;SDS011;5698;47.332;11.180;2024-02-04T04:08:35;1.00;;;0.63;;
11283;SDS011;5698;47.332;11.180;2024-02-04T04:11:02;1.40;;;0.70;;
11283;SDS011;5698;47.332;11.180;2024-02-04T04:13:29;0.80;;;0.50;;
11283;SDS011;5698;47.332;11.180;2024-02-04T04:15:57;0.73;;;0.50;;
11283;SDS011;5698;47.332;11.180;2024-02-04T04:18:24;0.57;;;0.40;;
11283;SDS011;5698;47.332;11.180;2024-02-04T04:20:51;0.70;;;0.67;;
11283;SDS011;5698;47.332;11.180;2024-02-04T04:23:19;1.60;;;0.60;;
11283;SDS011;5698;47.332;11.180;2024-02-04T04:25:46;1.53;;;1.00;;
11283;SDS011;5698;47.332;11.180;2024-02-04T04:28:12;1.90;;;0.70;;
11283;SDS011;5698;47.332;11.180;2024-02-04T04:30:39;1.83;;;0.60;;
11283;SDS011;5698;47.332;11.180;2024-02-04T04:33:06;1.67;;;0.60;;
11283;SDS011;5698;47.332;11.180;2024-02-04T04:35:34;0.80;;;0.60;;
11283;SDS011;5698;47.332;11.180;2024-02-04T04:38:01;0.60;;;0.40;;
11283;SDS011;5698;47.332;11.180;2024-02-04T04:40:29;0.70;;;0.50;;
11283;SDS011;5698;47.332;11.180;2024-02-04T04:42:56;1.20;;;0.60;;
11283;SDS011;5698;47.332;11.180;2024-02-04T04:45:23;0.77;;;0.57;;
11283;SDS011;5698;47.332;11.180;2024-02-04T04:47:50;1.07;;;0.63;;
11283;SDS011;5698;47.332;11.180;2024-02-04T04:50:17;1.57;;;0.60;;
11283;SDS011;5698;47.332;11.180;2024-02-04T04:52:45;2.10;;;0.77;;
11283;SDS011;5698;47.332;11.180;2024-02-04T04:55:12;2.10;;;0.63;;
11283;SDS011;5698;47.332;11.180;2024-02-04T04:57:41;1.77;;;0.60;;
11283;SDS011;5698;47.332;11.180;2024-02-04T05:00:08;1.40;;;0.60;;
11283;SDS011;5698;47.332;11.180;2024-02-04T05:02:37;2.60;;;0.60;;
11283;SDS011;5698;47.332;11.180;2024-02-04T05:05:08;2.00;;;0.60;;
11283;SDS011;5698;47.332;11.180;2024-02-04T05:07:36;1.10;;;0.60;;
11283;SDS011;5698;47.332;11.180;2024-02-04T05:10:03;1.80;;;0.70;;
11283;SDS011;5698;47.332;11.180;2024-02-04T05:12:32;1.70;;;0.70;;
11283;SDS011;5698;47.332;11.180;2024-02-04T05:15:01;1.83;;;0.80;;
11283;SDS011;5698;47.332;11.180;2024-02-04T05:17:28;1.50;;;0.60;;
11283;SDS011;5698;47.332;11.180;2024-02-04T05:19:55;0.93;;;0.53;;
11283;SDS011;5698;47.332;11.180;2024-02-04T05:22:22;0.30;;;0.30;;
11283;SDS011;5698;47.332;11.180;2024-02-04T05:24:49;0.73;;;0.50;;
11283;SDS011;5698;47.332;11.180;2024-02-04T05:27:16;1.27;;;0.60;;
11283;SDS011;5698;47.332;11.180;2024-02-04T05:29:43;0.50;;;0.50;;
11283;SDS011;5698;47.332;11.180;2024-02-04T05:32:12;1.47;;;0.70;;
11283;SDS011;5698;47.332;11.180;2024-02-04T05:34:39;1.37;;;0.63;;
11283;SDS011;5698;47.332;11.180;2024-02-04T05:37:06;1.30;;;0.87;;
11283;SDS011;5698;47.332;11.180;2024-02-04T05:39:33;1.23;;;0.60;;
11283;SDS011;5698;47.332;11.180;2024-02-04T05:42:00;1.73;;;0.50;;
11283;SDS011;5698;47.332;11.180;2024-02-04T05:44:27;1.70;;;0.70;;
11283;SDS011;5698;47.332;11.180;2024-02-04T05:46:54;1.40;;;0.53;;
11283;SDS011;5698;47.332;11.180;2024-02-04T05:49:23;1.53;;;0.60;;
11283;SDS011;5698;47.332;11.180;2024-02-04T05:51:50;1.97;;;0.50;;
11283;SDS011;5698;47.332;11.180;2024-02-04T05:54:16;0.80;;;0.60;;
11283;SDS011;5698;47.332;11.180;2024-02-04T05:56:43;1.10;;;0.70;;
11283;SDS011;5698;47.332;11.180;2024-02-04T05:59:10;1.13;;;0.73;;
11283;SDS011;5698;47.332;11.180;2024-02-04T06:01:38;0.97;;;0.57;;
11283;SDS011;5698;47.332;11.180;2024-02-04T06:04:05;1.27;;;0.50;;
11283;SDS011;5698;47.332;11.180;2024-02-04T06:06:33;1.17;;;0.60;;
11283;SDS011;5698;47.332;11.180;2024-02-04T06:09:00;2.30;;;0.70;;
11283;SDS011;5698;47.332;11.180;2024-02-04T06:11:28;2.50;;;0.90;;
11283;SDS011;5698;47.332;11.180;2024-02-04T06:13:55;2.77;;;0.60;;
11283;SDS011;5698;47.332;11.180;2024-02-04T06:16:22;1.80;;;0.70;;
11283;SDS011;5698;47.332;11.180;2024-02-04T06:18:49;2.07;;;0.70;;
11283;SDS011;5698;47.332;11.180;2024-02-04T06:21:16;2.80;;;1.00;;
11283;SDS011;5698;47.332;11.180;2024-02-04T06:23:44;1.83;;;0.80;;
11283;SDS011;5698;47.332;11.180;2024-02-04T06:26:11;0.70;;;0.70;;
11283;SDS011;5698;47.332;11.180;2024-02-04T06:28:38;0.80;;;0.60;;
11283;SDS011;5698;47.332;11.180;2024-02-04T06:31:08;1.27;;;0.53;;
11283;SDS011;5698;47.332;11.180;2024-02-04T06:33:36;0.67;;;0.60;;
11283;SDS011;5698;47.332;11.180;2024-02-04T06:36:07;0.60;;;0.50;;
11283;SDS011;5698;47.332;11.180;2024-02-04T06:38:35;1.97;;;0.83;;
11283;SDS011;5698;47.332;11.180;2024-02-04T06:41:03;1.13;;;0.60;;
11283;SDS011;5698;47.332;11.180;2024-02-04T06:43:30;1.97;;;0.70;;
11283;SDS011;5698;47.332;11.180;2024-02-04T06:45:58;1.57;;;0.80;;
11283;SDS011;5698;47.332;11.180;2024-02-04T06:48:25;2.97;;;0.80;;
11283;SDS011;5698;47.332;11.180;2024-02-04T06:50:52;1.33;;;0.80;;
11283;SDS011;5698;47.332;11.180;2024-02-04T06:53:19;1.10;;;0.70;;
11283;SDS011;5698;47.332;11.180;2024-02-04T06:55:46;4.43;;;3.30;;
11283;SDS011;5698;47.332;11.180;2024-02-04T06:58:14;6.80;;;4.60;;
11283;SDS011;5698;47.332;11.180;2024-02-04T07:00:41;3.57;;;2.03;;
11283;SDS011;5698;47.332;11.180;2024-02-04T07:03:08;3.80;;;1.10;;
11283;SDS011;5698;47.332;11.180;2024-02-04T07:05:36;2.67;;;0.77;;
11283;SDS011;5698;47.332;11.180;2024-02-04T07:08:03;2.67;;;0.87;;
11283;SDS011;5698;47.332;11.180;2024-02-04T07:10:30;2.43;;;0.70;;
11283;SDS011;5698;47.332;11.180;2024-02-04T07:12:57;1.77;;;0.80;;
11283;SDS011;5698;47.332;11.180;2024-02-04T07:15:26;2.07;;;0.53;;
11283;SDS011;5698;47.332;11.180;2024-02-04T07:17:53;1.97;;;0.60;;
11283;SDS011;5698;47.332;11.180;2024-02-04T07:20:20;1.00;;;0.60;;
11283;SDS011;5698;47.332;11.180;2024-02-04T07:22:47;1.37;;;0.50;;
11283;SDS011;5698;47.332;11.180;2024-02-04T07:25:14;1.03;;;0.60;;
11283;SDS011;5698;47.332;11.180;2024-02-04T07:27:41;2.00;;;0.67;;
11283;SDS011;5698;47.332;11.180;2024-02-04T07:30:08;0.87;;;0.50;;
11283;SDS011;5698;47.332;11.180;2024-02-04T07:32:37;1.77;;;0.50;;
11283;SDS011;5698;47.332;11.180;2024-02-04T07:35:04;0.70;;;0.50;;
11283;SDS011;5698;47.332;11.180;2024-02-04T07:37:33;2.27;;;0.63;;
11283;SDS011;5698;47.332;11.180;2024-02-04T07:40:01;1.60;;;0.60;;
11283;SDS011;5698;47.332;11.180;2024-02-04T07:42:30;0.57;;;0.47;;
11283;SDS011;5698;47.332;11.180;2024-02-04T07:44:57;0.70;;;0.50;;
11283;SDS011;5698;47.332;11.180;2024-02-04T07:47:24;0.70;;;0.50;;
11283;SDS011;5698;47.332;11.180;2024-02-04T07:49:53;1.80;;;0.60;;
11283;SDS011;5698;47.332;11.180;2024-02-04T07:52:20;2.33;;;0.57;;
11283;SDS011;5698;47.332;11.180;2024-02-04T07:54:47;1.17;;;0.60;;
11283;SDS011;5698;47.332;11.180;2024-02-04T07:57:14;1.40;;;0.60;;
11283;SDS011;5698;47.332;11.180;2024-02-04T07:59:41;2.30;;;0.67;;
11283;SDS011;5698;47.332;11.180;2024-02-04T08:02:08;0.50;;;0.40;;
11283;SDS011;5698;47.332;11.180;2024-02-04T08:04:35;2.03;;;1.20;;
11283;SDS011;5698;47.332;11.180;2024-02-04T08:07:03;2.40;;;1.50;;
11283;SDS011;5698;47.332;11.180;2024-02-04T08:09:30;17.97;;;15.00;;
11283;SDS011;5698;47.332;11.180;2024-02-04T08:11:57;16.47;;;14.20;;
11283;SDS011;5698;47.332;11.180;2024-02-04T08:14:24;62.97;;;44.43;;
11283;SDS011;5698;47.332;11.180;2024-02-04T08:16:51;35.47;;;25.50;;
11283;SDS011;5698;47.332;11.180;2024-02-04T08:19:18;12.50;;;10.33;;
11283;SDS011;5698;47.332;11.180;2024-02-04T08:21:45;6.47;;;5.03;;
11283;SDS011;5698;47.332;11.180;2024-02-04T08:24:14;4.57;;;3.70;;
11283;SDS011;5698;47.332;11.180;2024-02-04T08:26:41;3.30;;;2.63;;
11283;SDS011;5698;47.332;11.180;2024-02-04T08:29:08;3.50;;;2.30;;
11283;SDS011;5698;47.332;11.180;2024-02-04T08:31:36;3.60;;;1.70;;
11283;SDS011;5698;47.332;11.180;2024-02-04T08:34:03;2.00;;;1.40;;
11283;SDS011;5698;47.332;11.180;2024-02-04T08:36:30;10.43;;;7.90;;
11283;SDS011;5698;47.332;11.180;2024-02-04T08:38:58;42.53;;;29.97;;
11283;SDS011;5698;47.332;11.180;2024-02-04T08:41:26;31.53;;;22.07;;
11283;SDS011;5698;47.332;11.180;2024-02-04T08:43:53;49.97;;;38.13;;
11283;SDS011;5698;47.332;11.180;2024-02-04T08:46:20;44.83;;;33.80;;
11283;SDS011;5698;47.332;11.180;2024-02-04T08:48:47;9.67;;;6.73;;
11283;SDS011;5698;47.332;11.180;2024-02-04T08:51:14;1.90;;;1.73;;
11283;SDS011;5698;47.332;11.180;2024-02-04T08:53:43;1.40;;;1.10;;
11283;SDS011;5698;47.332;11.180;2024-02-04T08:56:10;1.00;;;0.60;;
11283;SDS011;5698;47.332;11.180;2024-02-04T08:58:38;2.17;;;1.50;;
11283;SDS011;5698;47.332;11.180;2024-02-04T09:01:06;22.63;;;14.77;;
11283;SDS011;5698;47.332;11.180;2024-02-04T09:03:33;16.40;;;12.70;;
11283;SDS011;5698;47.332;11.180;2024-02-04T09:06:00;5.43;;;2.53;;
11283;SDS011;5698;47.332;11.180;2024-02-04T09:08:27;2.67;;;1.80;;
11283;SDS011;5698;47.332;11.180;2024-02-04T09:10:54;1.70;;;1.43;;
11283;SDS011;5698;47.332;11.180;2024-02-04T09:13:22;0.87;;;0.83;;
11283;SDS011;5698;47.332;11.180;2024-02-04T09:15:50;1.17;;;0.70;;
11283;SDS011;5698;47.332;11.180;2024-02-04T09:18:18;2.27;;;0.70;;
11283;SDS011;5698;47.332;11.180;2024-02-04T09:20:46;0.87;;;0.73;;
11283;SDS011;5698;47.332;11.180;2024-02-04T09:23:13;1.33;;;0.67;;
11283;SDS011;5698;47.332;11.180;2024-02-04T09:25:40;1.17;;;0.60;;
11283;SDS011;5698;47.332;11.180;2024-02-04T09:28:07;3.03;;;1.37;;
11283;SDS011;5698;47.332;11.180;2024-02-04T09:30:34;0.80;;;0.50;;
11283;SDS011;5698;47.332;11.180;2024-02-04T09:33:03;1.13;;;1.03;;
11283;SDS011;5698;47.332;11.180;2024-02-04T09:35:31;2.00;;;1.90;;
11283;SDS011;5698;47.332;11.180;2024-02-04T09:37:58;1.63;;;1.50;;
11283;SDS011;5698;47.332;11.180;2024-02-04T09:40:25;0.93;;;0.80;;
11283;SDS011;5698;47.332;11.180;2024-02-04T09:42:52;1.97;;;1.80;;
11283;SDS011;5698;47.332;11.180;2024-02-04T09:45:20;1.87;;;1.10;;
11283;SDS011;5698;47.332;11.180;2024-02-04T09:47:47;3.53;;;2.50;;
11283;SDS011;5698;47.332;11.180;2024-02-04T09:50:20;6.23;;;3.70;;
11283;SDS011;5698;47.332;11.180;2024-02-04T09:52:48;3.07;;;1.37;;
11283;SDS011;5698;47.332;11.180;2024-02-04T09:55:16;1.50;;;0.93;;
11283;SDS011;5698;47.332;11.180;2024-02-04T09:57:46;4.73;;;2.90;;
11283;SDS011;5698;47.332;11.180;2024-02-04T10:00:13;0.90;;;0.90;;
11283;SDS011;5698;47.332;11.180;2024-02-04T10:02:44;0.73;;;0.53;;
11283;SDS011;5698;47.332;11.180;2024-02-04T10:05:13;1.43;;;1.20;;
11283;SDS011;5698;47.332;11.180;2024-02-04T10:07:42;1.43;;;1.20;;
11283;SDS011;5698;47.332;11.180;2024-02-04T10:10:09;1.03;;;0.90;;
11283;SDS011;5698;47.332;11.180;2024-02-04T10:12:37;1.53;;;0.80;;
11283;SDS011;5698;47.332;11.180;2024-02-04T10:15:06;2.03;;;0.87;;
11283;SDS011;5698;47.332;11.180;2024-02-04T10:17:34;0.50;;;0.40;;
11283;SDS011;5698;47.332;11.180;2024-02-04T10:20:01;0.70;;;0.60;;
11283;SDS011;5698;47.332;11.180;2024-02-04T10:22:28;0.43;;;0.43;;
11283;SDS011;5698;47.332;11.180;2024-02-04T10:25:06;0.60;;;0.50;;
11283;SDS011;5698;47.332;11.180;2024-02-04T10:27:37;1.63;;;0.50;;
11283;SDS011;5698;47.332;11.180;2024-02-04T10:30:05;1.17;;;0.70;;
11283;SDS011;5698;47.332;11.180;2024-02-04T10:32:33;1.80;;;1.20;;
11283;SDS011;5698;47.332;11.180;2024-02-04T10:35:00;3.60;;;3.30;;
11283;SDS011;5698;47.332;11.180;2024-02-04T10:37:27;3.77;;;2.90;;
11283;SDS011;5698;47.332;11.180;2024-02-04T10:39:55;1.33;;;0.80;;
11283;SDS011;5698;47.332;11.180;2024-02-04T10:42:23;3.67;;;3.23;;
11283;SDS011;5698;47.332;11.180;2024-02-04T10:44:52;2.53;;;2.33;;
11283;SDS011;5698;47.332;11.180;2024-02-04T10:47:22;1.50;;;1.40;;
11283;SDS011;5698;47.332;11.180;2024-02-04T10:49:50;0.63;;;0.57;;
11283;SDS011;5698;47.332;11.180;2024-02-04T10:52:19;0.70;;;0.50;;
11283;SDS011;5698;47.332;11.180;2024-02-04T10:54:48;3.80;;;3.00;;
11283;SDS011;5698;47.332;11.180;2024-02-04T10:57:20;2.30;;;2.10;;
11283;SDS011;5698;47.332;11.180;2024-02-04T10:59:50;1.10;;;0.80;;
11283;SDS011;5698;47.332;11.180;2024-02-04T11:02:18;1.00;;;0.70;;
11283;SDS011;5698;47.332;11.180;2024-02-04T11:04:48;0.50;;;0.50;;
11283;SDS011;5698;47.332;11.180;2024-02-04T11:07:16;0.40;;;0.40;;
11283;SDS011;5698;47.332;11.180;2024-02-04T11:09:44;1.03;;;0.50;;
11283;SDS011;5698;47.332;11.180;2024-02-04T11:12:13;0.77;;;0.50;;
11283;SDS011;5698;47.332;11.180;2024-02-04T11:14:46;0.43;;;0.30;;
11283;SDS011;5698;47.332;11.180;2024-02-04T11:17:28;0.40;;;0.40;;
11283;SDS011;5698;47.332;11.180;2024-02-04T11:20:23;0.90;;;0.40;;
11283;SDS011;5698;47.332;11.180;2024-02-04T11:23:13;0.77;;;0.50;;
11283;SDS011;5698;47.332;11.180;2024-02-04T11:25:56;1.03;;;0.90;;
11283;SDS011;5698;47.332;11.180;2024-02-04T11:28:24;0.90;;;0.60;;
11283;SDS011;5698;47.332;11.180;2024-02-04T11:30:52;0.73;;;0.60;;
11283;SDS011;5698;47.332;11.180;2024-02-04T11:33:21;1.13;;;0.33;;
11283;SDS011;5698;47.332;11.180;2024-02-04T11:35:58;0.53;;;0.40;;
11283;SDS011;5698;47.332;11.180;2024-02-04T11:38:29;0.30;;;0.30;;
11283;SDS011;5698;47.332;11.180;2024-02-04T11:40:57;1.57;;;0.40;;
11283;SDS011;5698;47.332;11.180;2024-02-04T11:43:24;0.97;;;0.40;;
11283;SDS011;5698;47.332;11.180;2024-02-04T11:45:52;0.40;;;0.33;;
11283;SDS011;5698;47.332;11.180;2024-02-04T11:48:28;0.30;;;0.30;;
11283;SDS011;5698;47.332;11.180;2024-02-04T11:50:57;0.50;;;0.30;;
11283;SDS011;5698;47.332;11.180;2024-02-04T11:53:26;0.33;;;0.30;;
11283;SDS011;5698;47.332;11.180;2024-02-04T11:55:57;0.63;;;0.37;;
11283;SDS011;5698;47.332;11.180;2024-02-04T11:58:25;0.60;;;0.30;;
11283;SDS011;5698;47.332;11.180;2024-02-04T12:00:53;0.30;;;0.30;;
11283;SDS011;5698;47.332;11.180;2024-02-04T12:03:29;1.07;;;0.33;;
11283;SDS011;5698;47.332;11.180;2024-02-04T12:05:57;0.80;;;0.60;;
11283;SDS011;5698;47.332;11.180;2024-02-04T12:08:24;1.77;;;1.23;;
11283;SDS011;5698;47.332;11.180;2024-02-04T12:10:52;2.10;;;1.27;;
11283;SDS011;5698;47.332;11.180;2024-02-04T12:13:20;24.87;;;10.07;;
11283;SDS011;5698;47.332;11.180;2024-02-04T12:15:47;26.67;;;10.17;;
11283;SDS011;5698;47.332;11.180;2024-02-04T12:18:14;60.70;;;24.80;;
11283;SDS011;5698;47.332;11.180;2024-02-04T12:20:46;125.80;;;56.00;;
11283;SDS011;5698;47.332;11.180;2024-02-04T12:23:15;64.17;;;33.73;;
11283;SDS011;5698;47.332;11.180;2024-02-04T12:25:43;26.43;;;14.83;;
11283;SDS011;5698;47.332;11.180;2024-02-04T12:28:11;5.53;;;3.23;;
11283;SDS011;5698;47.332;11.180;2024-02-04T12:30:40;11.50;;;6.43;;
11283;SDS011;5698;47.332;11.180;2024-02-04T12:33:18;2.43;;;1.80;;
11283;SDS011;5698;47.332;11.180;2024-02-04T12:35:50;0.70;;;0.60;;
11283;SDS011;5698;47.332;11.180;2024-02-04T12:38:17;0.80;;;0.50;;
11283;SDS011;5698;47.332;11.180;2024-02-04T12:40:44;0.67;;;0.50;;
11283;SDS011;5698;47.332;11.180;2024-02-04T12:43:11;0.30;;;0.30;;
11283;SDS011;5698;47.332;11.180;2024-02-04T12:45:38;0.83;;;0.40;;
11283;SDS011;5698;47.332;11.180;2024-02-04T12:48:05;0.47;;;0.40;;
11283;SDS011;5698;47.332;11.180;2024-02-04T12:50:36;0.27;;;0.20;;
11283;SDS011;5698;47.332;11.180;2024-02-04T12:53:05;1.33;;;0.30;;
11283;SDS011;5698;47.332;11.180;2024-02-04T12:55:33;0.20;;;0.20;;
11283;SDS011;5698;47.332;11.180;2024-02-04T12:58:02;0.47;;;0.30;;
11283;SDS011;5698;47.332;11.180;2024-02-04T13:00:30;0.40;;;0.40;;
11283;SDS011;5698;47.332;11.180;2024-02-04T13:02:57;0.47;;;0.20;;
11283;SDS011;5698;47.332;11.180;2024-02-04T13:05:25;0.30;;;0.30;;
11283;SDS011;5698;47.332;11.180;2024-02-04T13:07:55;0.30;;;0.27;;
11283;SDS011;5698;47.332;11.180;2024-02-04T13:10:27;0.40;;;0.40;;
11283;SDS011;5698;47.332;11.180;2024-02-04T13:12:59;1.10;;;0.30;;
11283;SDS011;5698;47.332;11.180;2024-02-04T13:15:27;0.30;;;0.30;;
11283;SDS011;5698;47.332;11.180;2024-02-04T13:17:54;0.70;;;0.40;;
11283;SDS011;5698;47.332;11.180;2024-02-04T13:20:21;0.73;;;0.30;;
11283;SDS011;5698;47.332;11.180;2024-02-04T13:22:49;0.20;;;0.20;;
11283;SDS011;5698;47.332;11.180;2024-02-04T13:25:18;0.47;;;0.30;;
11283;SDS011;5698;47.332;11.180;2024-02-04T13:27:48;0.50;;;0.30;;
11283;SDS011;5698;47.332;11.180;2024-02-04T13:30:15;0.30;;;0.30;;
11283;SDS011;5698;47.332;11.180;2024-02-04T13:32:43;0.63;;;0.40;;
11283;SDS011;5698;47.332;11.180;2024-02-04T13:35:11;0.60;;;0.30;;
11283;SDS011;5698;47.332;11.180;2024-02-04T13:37:41;1.23;;;0.30;;
11283;SDS011;5698;47.332;11.180;2024-02-04T13:40:12;0.47;;;0.40;;
11283;SDS011;5698;47.332;11.180;2024-02-04T13:42:40;0.50;;;0.40;;
11283;SDS011;5698;47.332;11.180;2024-02-04T13:45:09;0.20;;;0.20;;
11283;SDS011;5698;47.332;11.180;2024-02-04T13:47:38;0.40;;;0.40;;
11283;SDS011;5698;47.332;11.180;2024-02-04T13:50:06;0.20;;;0.20;;
11283;SDS011;5698;47.332;11.180;2024-02-04T13:52:34;3.80;;;0.50;;
11283;SDS011;5698;47.332;11.180;2024-02-04T13:55:01;0.40;;;0.40;;
11283;SDS011;5698;47.332;11.180;2024-02-04T13:57:30;1.40;;;0.30;;
11283;SDS011;5698;47.332;11.180;2024-02-04T13:59:57;0.87;;;0.40;;
11283;SDS011;5698;47.332;11.180;2024-02-04T14:02:25;0.37;;;0.37;;
11283;SDS011;5698;47.332;11.180;2024-02-04T14:04:54;0.83;;;0.30;;
11283;SDS011;5698;47.332;11.180;2024-02-04T14:07:21;1.00;;;0.50;;
11283;SDS011;5698;47.332;11.180;2024-02-04T14:09:48;0.60;;;0.40;;
11283;SDS011;5698;47.332;11.180;2024-02-04T14:12:16;0.33;;;0.33;;
11283;SDS011;5698;47.332;11.180;2024-02-04T14:14:43;0.40;;;0.30;;
11283;SDS011;5698;47.332;11.180;2024-02-04T14:17:10;0.30;;;0.30;;
11283;SDS011;5698;47.332;11.180;2024-02-04T14:19:38;1.27;;;0.50;;
11283;SDS011;5698;47.332;11.180;2024-02-04T14:22:05;0.40;;;0.40;;
11283;SDS011;5698;47.332;11.180;2024-02-04T14:24:32;0.80;;;0.40;;
11283;SDS011;5698;47.332;11.180;2024-02-04T14:26:59;0.23;;;0.20;;
11283;SDS011;5698;47.332;11.180;2024-02-04T14:29:26;1.60;;;0.37;;
11283;SDS011;5698;47.332;11.180;2024-02-04T14:31:53;0.27;;;0.20;;
11283;SDS011;5698;47.332;11.180;2024-02-04T14:34:21;0.40;;;0.40;;
11283;SDS011;5698;47.332;11.180;2024-02-04T14:36:49;0.57;;;0.30;;
11283;SDS011;5698;47.332;11.180;2024-02-04T14:39:16;0.43;;;0.43;;
11283;SDS011;5698;47.332;11.180;2024-02-04T14:41:43;0.30;;;0.30;;
11283;SDS011;5698;47.332;11.180;2024-02-04T14:44:10;0.40;;;0.40;;
11283;SDS011;5698;47.332;11.180;2024-02-04T14:46:38;0.63;;;0.50;;
11283;SDS011;5698;47.332;11.180;2024-02-04T14:49:05;0.40;;;0.30;;
11283;SDS011;5698;47.332;11.180;2024-02-04T14:51:32;0.30;;;0.30;;